sensor_id;sensor_type;location;lat;lon;timestamp;temperature;humidity
15815;DHT22;8008;50.024;8.172;2023-06-22T03:01:09;22.50;99.90
15815;DHT22;8008;50.024;8.172;2023-06-22T03:03:41;22.60;99.90
15815;DHT22;8008;50.024;8.172;2023-06-22T03:06:10;22.60;99.90
15815;DHT22;8008;50.024;8.172;2023-06-22T03:08:40;22.70;99.90
15815;DHT22;8008;50.024;8.172;2023-06-22T03:11:10;22.70;99.90
15815;DHT22;8008;50.024;8.172;2023-06-22T03:13:38;22.70;99.90
15815;DHT22;8008;50.024;8.172;2023-06-22T03:16:06;22.70;99.90
15815;DHT22;8008;50.024;8.172;2023-06-22T03:18:37;22.80;99.90
15815;DHT22;8008;50.024;8.172;2023-06-22T03:21:05;22.80;99.90
15815;DHT22;8008;50.024;8.172;2023-06-22T03:23:33;22.80;99.90
15815;DHT22;8008;50.024;8.172;2023-06-22T03:26:01;22.80;99.90
15815;DHT22;8008;50.024;8.172;2023-06-22T03:28:30;22.80;99.90
15815;DHT22;8008;50.024;8.172;2023-06-22T03:30:58;22.70;99.90
15815;DHT22;8008;50.024;8.172;2023-06-22T03:33:29;22.80;99.90
15815;DHT22;8008;50.024;8.172;2023-06-22T03:35:59;22.80;99.90
15815;DHT22;8008;50.024;8.172;2023-06-22T03:38:27;22.70;99.90
15815;DHT22;8008;50.024;8.172;2023-06-22T03:40:56;22.80;99.90
15815;DHT22;8008;50.024;8.172;2023-06-22T03:43:25;22.80;99.90
15815;DHT22;8008;50.024;8.172;2023-06-22T03:45:55;22.80;99.90
15815;DHT22;8008;50.024;8.172;2023-06-22T03:48:23;22.70;99.90
15815;DHT22;8008;50.024;8.172;2023-06-22T03:50:51;22.70;99.90
15815;DHT22;8008;50.024;8.172;2023-06-22T03:53:20;22.80;99.90
15815;DHT22;8008;50.024;8.172;2023-06-22T03:55:49;22.80;99.90
15815;DHT22;8008;50.024;8.172;2023-06-22T03:58:18;22.90;99.90
15815;DHT22;8008;50.024;8.172;2023-06-22T04:00:46;22.80;99.90
15815;DHT22;8008;50.024;8.172;2023-06-22T04:03:15;22.80;99.90
15815;DHT22;8008;50.024;8.172;2023-06-22T04:05:45;22.80;99.90
15815;DHT22;8008;50.024;8.172;2023-06-22T04:08:14;22.90;99.90
15815;DHT22;8008;50.024;8.172;2023-06-22T04:10:44;22.90;99.90
15815;DHT22;8008;50.024;8.172;2023-06-22T04:13:12;22.90;99.90
15815;DHT22;8008;50.024;8.172;2023-06-22T04:15:40;22.90;99.90
15815;DHT22;8008;50.024;8.172;2023-06-22T04:18:08;22.80;99.90
15815;DHT22;8008;50.024;8.172;2023-06-22T04:20:36;22.80;99.90
15815;DHT22;8008;50.024;8.172;2023-06-22T04:23:04;22.80;99.90
15815;DHT22;8008;50.024;8.172;2023-06-22T04:25:32;22.80;99.90
15815;DHT22;8008;50.024;8.172;2023-06-22T04:28:01;22.80;99.90
15815;DHT22;8008;50.024;8.172;2023-06-22T04:30:29;22.80;99.90
15815;DHT22;8008;50.024;8.172;2023-06-22T04:32:58;22.80;99.90
15815;DHT22;8008;50.024;8.172;2023-06-22T04:35:27;22.70;99.90
15815;DHT22;8008;50.024;8.172;2023-06-22T04:37:58;22.80;99.90
15815;DHT22;8008;50.024;8.172;2023-06-22T04:40:26;22.80;99.90
15815;DHT22;8008;50.024;8.172;2023-06-22T04:42:55;22.80;99.90
15815;DHT22;8008;50.024;8.172;2023-06-22T04:45:24;22.80;99.90
15815;DHT22;8008;50.024;8.172;2023-06-22T04:47:52;22.60;99.90
15815;DHT22;8008;50.024;8.172;2023-06-22T04:50:20;22.70;99.90
15815;DHT22;8008;50.024;8.172;2023-06-22T04:52:51;22.70;99.90
15815;DHT22;8008;50.024;8.172;2023-06-22T04:55:20;22.80;99.90
15815;DHT22;8008;50.024;8.172;2023-06-22T04:57:48;22.80;99.90
15815;DHT22;8008;50.024;8.172;2023-06-22T05:00:17;22.90;99.90
15815;DHT22;8008;50.024;8.172;2023-06-22T05:02:51;22.90;99.90
15815;DHT22;8008;50.024;8.172;2023-06-22T05:05:29;22.90;99.90
15815;DHT22;8008;50.024;8.172;2023-06-22T05:07:57;22.90;99.90
15815;DHT22;8008;50.024;8.172;2023-06-22T05:10:27;23.00;99.90
15815;DHT22;8008;50.024;8.172;2023-06-22T05:12:55;23.00;99.90
15815;DHT22;8008;50.024;8.172;2023-06-22T05:15:23;23.00;99.90
15815;DHT22;8008;50.024;8.172;2023-06-22T05:17:56;23.10;99.90
15815;DHT22;8008;50.024;8.172;2023-06-22T05:20:25;23.10;99.90
15815;DHT22;8008;50.024;8.172;2023-06-22T05:22:53;23.10;99.90
15815;DHT22;8008;50.024;8.172;2023-06-22T05:25:21;23.10;99.90
15815;DHT22;8008;50.024;8.172;2023-06-22T05:27:49;23.20;99.90
15815;DHT22;8008;50.024;8.172;2023-06-22T05:30:18;23.20;99.90
15815;DHT22;8008;50.024;8.172;2023-06-22T05:32:48;23.20;99.90
15815;DHT22;8008;50.024;8.172;2023-06-22T05:35:17;23.30;99.90
15815;DHT22;8008;50.024;8.172;2023-06-22T05:37:45;23.30;99.90
15815;DHT22;8008;50.024;8.172;2023-06-22T05:40:13;23.30;99.90
15815;DHT22;8008;50.024;8.172;2023-06-22T05:42:41;23.40;99.90
15815;DHT22;8008;50.024;8.172;2023-06-22T05:45:09;23.50;99.90
15815;DHT22;8008;50.024;8.172;2023-06-22T05:47:37;23.50;99.90
15815;DHT22;8008;50.024;8.172;2023-06-22T05:50:06;23.60;99.90
15815;DHT22;8008;50.024;8.172;2023-06-22T05:52:40;23.60;99.90
15815;DHT22;8008;50.024;8.172;2023-06-22T05:55:08;23.70;99.90
15815;DHT22;8008;50.024;8.172;2023-06-22T05:57:36;23.70;99.90
15815;DHT22;8008;50.024;8.172;2023-06-22T06:00:06;23.80;99.90
15815;DHT22;8008;50.024;8.172;2023-06-22T06:02:37;23.80;99.90
15815;DHT22;8008;50.024;8.172;2023-06-22T06:05:11;23.80;99.90
15815;DHT22;8008;50.024;8.172;2023-06-22T06:07:42;23.80;99.90
15815;DHT22;8008;50.024;8.172;2023-06-22T06:10:10;23.90;99.90
15815;DHT22;8008;50.024;8.172;2023-06-22T06:12:38;24.00;99.90
15815;DHT22;8008;50.024;8.172;2023-06-22T06:15:06;24.00;99.90
15815;DHT22;8008;50.024;8.172;2023-06-22T06:17:45;24.00;99.90
15815;DHT22;8008;50.024;8.172;2023-06-22T06:20:13;24.10;99.90
15815;DHT22;8008;50.024;8.172;2023-06-22T06:22:42;24.10;99.90
15815;DHT22;8008;50.024;8.172;2023-06-22T06:25:10;24.20;99.90
15815;DHT22;8008;50.024;8.172;2023-06-22T06:27:43;24.20;99.90
15815;DHT22;8008;50.024;8.172;2023-06-22T06:30:12;24.30;99.90
15815;DHT22;8008;50.024;8.172;2023-06-22T06:32:41;24.30;99.90
15815;DHT22;8008;50.024;8.172;2023-06-22T06:35:10;24.30;99.90
15815;DHT22;8008;50.024;8.172;2023-06-22T06:37:39;24.30;99.90
15815;DHT22;8008;50.024;8.172;2023-06-22T06:40:10;24.40;99.90
15815;DHT22;8008;50.024;8.172;2023-06-22T06:42:39;24.40;99.90
15815;DHT22;8008;50.024;8.172;2023-06-22T06:45:09;24.40;99.90
15815;DHT22;8008;50.024;8.172;2023-06-22T06:47:38;24.40;99.90
15815;DHT22;8008;50.024;8.172;2023-06-22T06:50:07;24.50;99.90
15815;DHT22;8008;50.024;8.172;2023-06-22T06:52:35;24.50;99.90
15815;DHT22;8008;50.024;8.172;2023-06-22T06:55:05;24.60;99.90
15815;DHT22;8008;50.024;8.172;2023-06-22T06:57:37;24.60;99.90
15815;DHT22;8008;50.024;8.172;2023-06-22T07:00:06;24.70;99.90
15815;DHT22;8008;50.024;8.172;2023-06-22T07:02:39;24.80;99.90
15815;DHT22;8008;50.024;8.172;2023-06-22T07:05:08;24.90;99.90
15815;DHT22;8008;50.024;8.172;2023-06-22T07:07:37;25.00;99.90
15815;DHT22;8008;50.024;8.172;2023-06-22T07:10:05;25.00;99.90
15815;DHT22;8008;50.024;8.172;2023-06-22T07:12:34;25.10;99.90
15815;DHT22;8008;50.024;8.172;2023-06-22T07:15:05;25.20;99.90
15815;DHT22;8008;50.024;8.172;2023-06-22T07:17:34;25.30;99.90
15815;DHT22;8008;50.024;8.172;2023-06-22T07:20:03;25.30;99.90
15815;DHT22;8008;50.024;8.172;2023-06-22T07:22:35;25.30;99.90
15815;DHT22;8008;50.024;8.172;2023-06-22T07:25:04;25.40;99.90
15815;DHT22;8008;50.024;8.172;2023-06-22T07:27:36;25.40;99.90
15815;DHT22;8008;50.024;8.172;2023-06-22T07:30:07;25.40;99.90
15815;DHT22;8008;50.024;8.172;2023-06-22T07:32:36;25.50;99.90
15815;DHT22;8008;50.024;8.172;2023-06-22T07:35:05;25.60;99.90
15815;DHT22;8008;50.024;8.172;2023-06-22T07:37:33;25.60;99.90
15815;DHT22;8008;50.024;8.172;2023-06-22T07:40:02;25.60;99.90
15815;DHT22;8008;50.024;8.172;2023-06-22T07:42:33;25.60;99.90
15815;DHT22;8008;50.024;8.172;2023-06-22T07:45:02;25.70;99.90
15815;DHT22;8008;50.024;8.172;2023-06-22T07:47:31;25.80;99.90
15815;DHT22;8008;50.024;8.172;2023-06-22T07:50:02;25.80;99.90
15815;DHT22;8008;50.024;8.172;2023-06-22T07:52:31;25.90;99.90
15815;DHT22;8008;50.024;8.172;2023-06-22T07:54:59;25.90;99.90
15815;DHT22;8008;50.024;8.172;2023-06-22T07:57:27;26.00;99.90
15815;DHT22;8008;50.024;8.172;2023-06-22T08:00:00;26.10;99.90
15815;DHT22;8008;50.024;8.172;2023-06-22T08:02:39;26.10;99.90
15815;DHT22;8008;50.024;8.172;2023-06-22T08:05:09;26.10;99.90
15815;DHT22;8008;50.024;8.172;2023-06-22T08:07:48;26.20;99.90
15815;DHT22;8008;50.024;8.172;2023-06-22T08:10:17;26.20;99.90
15815;DHT22;8008;50.024;8.172;2023-06-22T08:12:45;26.30;99.90
15815;DHT22;8008;50.024;8.172;2023-06-22T08:15:13;26.40;99.90
15815;DHT22;8008;50.024;8.172;2023-06-22T08:17:43;26.50;99.90
15815;DHT22;8008;50.024;8.172;2023-06-22T08:20:12;26.50;99.90
15815;DHT22;8008;50.024;8.172;2023-06-22T08:22:40;26.60;99.90
15815;DHT22;8008;50.024;8.172;2023-06-22T08:25:09;26.60;99.90
15815;DHT22;8008;50.024;8.172;2023-06-22T08:27:37;26.60;99.90
15815;DHT22;8008;50.024;8.172;2023-06-22T08:30:07;26.60;99.90
15815;DHT22;8008;50.024;8.172;2023-06-22T08:32:35;26.70;99.90
15815;DHT22;8008;50.024;8.172;2023-06-22T08:35:05;26.80;99.90
15815;DHT22;8008;50.024;8.172;2023-06-22T08:37:35;26.80;99.90
15815;DHT22;8008;50.024;8.172;2023-06-22T08:40:05;26.80;99.90
15815;DHT22;8008;50.024;8.172;2023-06-22T08:42:34;26.80;99.90
15815;DHT22;8008;50.024;8.172;2023-06-22T08:45:03;26.90;99.90
15815;DHT22;8008;50.024;8.172;2023-06-22T08:47:31;26.90;99.90
15815;DHT22;8008;50.024;8.172;2023-06-22T08:49:59;27.00;99.90
15815;DHT22;8008;50.024;8.172;2023-06-22T08:52:30;27.00;99.90
15815;DHT22;8008;50.024;8.172;2023-06-22T08:54:58;27.10;99.90
15815;DHT22;8008;50.024;8.172;2023-06-22T08:57:26;27.20;99.90
15815;DHT22;8008;50.024;8.172;2023-06-22T08:59:55;27.20;99.90
15815;DHT22;8008;50.024;8.172;2023-06-22T09:02:25;27.50;99.90
15815;DHT22;8008;50.024;8.172;2023-06-22T09:04:57;27.60;99.90
15815;DHT22;8008;50.024;8.172;2023-06-22T09:07:26;27.60;99.90
15815;DHT22;8008;50.024;8.172;2023-06-22T09:09:56;27.70;99.90
15815;DHT22;8008;50.024;8.172;2023-06-22T09:12:27;27.70;99.90
15815;DHT22;8008;50.024;8.172;2023-06-22T09:14:57;27.70;99.90
15815;DHT22;8008;50.024;8.172;2023-06-22T09:17:26;27.60;99.90
15815;DHT22;8008;50.024;8.172;2023-06-22T09:19:54;27.70;99.90
15815;DHT22;8008;50.024;8.172;2023-06-22T09:22:23;27.80;99.90
15815;DHT22;8008;50.024;8.172;2023-06-22T09:24:57;27.90;99.90
15815;DHT22;8008;50.024;8.172;2023-06-22T09:27:26;28.00;99.90
15815;DHT22;8008;50.024;8.172;2023-06-22T09:29:54;28.00;99.90
15815;DHT22;8008;50.024;8.172;2023-06-22T09:32:22;28.10;99.90
15815;DHT22;8008;50.024;8.172;2023-06-22T09:34:50;28.20;99.90
15815;DHT22;8008;50.024;8.172;2023-06-22T09:37:18;28.40;99.90
15815;DHT22;8008;50.024;8.172;2023-06-22T09:39:46;28.50;99.90
15815;DHT22;8008;50.024;8.172;2023-06-22T09:42:15;28.60;99.90
15815;DHT22;8008;50.024;8.172;2023-06-22T09:44:43;28.60;99.90
15815;DHT22;8008;50.024;8.172;2023-06-22T09:47:11;28.70;99.90
15815;DHT22;8008;50.024;8.172;2023-06-22T09:49:39;28.70;99.90
15815;DHT22;8008;50.024;8.172;2023-06-22T09:52:15;28.60;99.90
15815;DHT22;8008;50.024;8.172;2023-06-22T09:54:43;28.60;99.90
15815;DHT22;8008;50.024;8.172;2023-06-22T09:57:11;28.60;99.90
15815;DHT22;8008;50.024;8.172;2023-06-22T09:59:41;28.60;99.90
15815;DHT22;8008;50.024;8.172;2023-06-22T10:02:09;28.60;99.90
15815;DHT22;8008;50.024;8.172;2023-06-22T10:04:37;28.60;99.90
15815;DHT22;8008;50.024;8.172;2023-06-22T10:07:06;28.40;99.90
15815;DHT22;8008;50.024;8.172;2023-06-22T10:09:34;28.50;99.90
15815;DHT22;8008;50.024;8.172;2023-06-22T10:12:02;28.50;99.90
15815;DHT22;8008;50.024;8.172;2023-06-22T10:14:31;28.60;99.90
15815;DHT22;8008;50.024;8.172;2023-06-22T10:17:02;28.80;99.90
15815;DHT22;8008;50.024;8.172;2023-06-22T10:19:30;28.90;99.90
15815;DHT22;8008;50.024;8.172;2023-06-22T10:21:58;29.10;99.90
15815;DHT22;8008;50.024;8.172;2023-06-22T10:24:26;29.20;99.90
15815;DHT22;8008;50.024;8.172;2023-06-22T10:26:54;29.30;99.90
15815;DHT22;8008;50.024;8.172;2023-06-22T10:29:21;29.60;99.90
15815;DHT22;8008;50.024;8.172;2023-06-22T10:31:49;29.90;99.90
15815;DHT22;8008;50.024;8.172;2023-06-22T10:34:19;30.10;99.90
15815;DHT22;8008;50.024;8.172;2023-06-22T10:36:46;30.30;99.90
15815;DHT22;8008;50.024;8.172;2023-06-22T10:39:15;30.60;99.90
15815;DHT22;8008;50.024;8.172;2023-06-22T10:41:43;30.90;99.90
15815;DHT22;8008;50.024;8.172;2023-06-22T10:44:11;31.10;99.90
15815;DHT22;8008;50.024;8.172;2023-06-22T10:46:40;31.20;99.90
15815;DHT22;8008;50.024;8.172;2023-06-22T10:49:08;31.20;99.90
15815;DHT22;8008;50.024;8.172;2023-06-22T10:51:37;31.10;99.50
15815;DHT22;8008;50.024;8.172;2023-06-22T10:54:05;31.10;99.50
15815;DHT22;8008;50.024;8.172;2023-06-22T10:56:33;31.10;99.50
15815;DHT22;8008;50.024;8.172;2023-06-22T10:59:01;31.10;99.30
15815;DHT22;8008;50.024;8.172;2023-06-22T11:01:29;31.00;97.80
15815;DHT22;8008;50.024;8.172;2023-06-22T11:04:03;30.90;97.30
15815;DHT22;8008;50.024;8.172;2023-06-22T11:06:31;31.00;98.00
15815;DHT22;8008;50.024;8.172;2023-06-22T11:09:00;31.20;98.30
15815;DHT22;8008;50.024;8.172;2023-06-22T11:11:51;31.50;97.60
15815;DHT22;8008;50.024;8.172;2023-06-22T11:14:20;31.80;97.40
15815;DHT22;8008;50.024;8.172;2023-06-22T11:16:49;32.00;96.60
15815;DHT22;8008;50.024;8.172;2023-06-22T11:19:17;32.20;95.20
15815;DHT22;8008;50.024;8.172;2023-06-22T11:21:45;32.40;95.40
15815;DHT22;8008;50.024;8.172;2023-06-22T11:24:14;32.50;93.30
15815;DHT22;8008;50.024;8.172;2023-06-22T11:26:43;32.60;93.00
15815;DHT22;8008;50.024;8.172;2023-06-22T11:29:11;32.90;92.60
15815;DHT22;8008;50.024;8.172;2023-06-22T11:31:58;32.80;91.60
15815;DHT22;8008;50.024;8.172;2023-06-22T11:34:26;32.70;90.90
15815;DHT22;8008;50.024;8.172;2023-06-22T11:36:54;32.70;90.80
15815;DHT22;8008;50.024;8.172;2023-06-22T11:39:24;32.80;90.50
15815;DHT22;8008;50.024;8.172;2023-06-22T11:42:07;32.90;90.70
15815;DHT22;8008;50.024;8.172;2023-06-22T11:44:35;33.30;89.90
15815;DHT22;8008;50.024;8.172;2023-06-22T11:47:04;33.40;89.90
15815;DHT22;8008;50.024;8.172;2023-06-22T11:49:32;33.70;88.30
15815;DHT22;8008;50.024;8.172;2023-06-22T11:52:00;33.80;87.70
15815;DHT22;8008;50.024;8.172;2023-06-22T11:54:29;34.10;88.60
15815;DHT22;8008;50.024;8.172;2023-06-22T11:56:57;34.20;86.70
15815;DHT22;8008;50.024;8.172;2023-06-22T11:59:25;34.40;86.20
15815;DHT22;8008;50.024;8.172;2023-06-22T12:01:53;34.60;85.90
15815;DHT22;8008;50.024;8.172;2023-06-22T12:04:21;34.80;85.50
15815;DHT22;8008;50.024;8.172;2023-06-22T12:06:49;35.20;84.80
15815;DHT22;8008;50.024;8.172;2023-06-22T12:09:17;35.50;82.90
15815;DHT22;8008;50.024;8.172;2023-06-22T12:11:46;35.80;82.30
15815;DHT22;8008;50.024;8.172;2023-06-22T12:14:14;36.10;81.10
15815;DHT22;8008;50.024;8.172;2023-06-22T12:16:42;36.00;78.00
15815;DHT22;8008;50.024;8.172;2023-06-22T12:19:11;36.00;79.70
15815;DHT22;8008;50.024;8.172;2023-06-22T12:21:39;36.30;79.30
15815;DHT22;8008;50.024;8.172;2023-06-22T12:24:07;36.40;78.10
15815;DHT22;8008;50.024;8.172;2023-06-22T12:26:35;36.40;76.50
15815;DHT22;8008;50.024;8.172;2023-06-22T12:29:04;36.60;77.20
15815;DHT22;8008;50.024;8.172;2023-06-22T12:31:32;36.90;76.60
15815;DHT22;8008;50.024;8.172;2023-06-22T12:34:00;36.90;74.10
15815;DHT22;8008;50.024;8.172;2023-06-22T12:36:28;37.00;74.50
15815;DHT22;8008;50.024;8.172;2023-06-22T12:38:56;36.90;71.40
15815;DHT22;8008;50.024;8.172;2023-06-22T12:41:24;36.60;72.90
15815;DHT22;8008;50.024;8.172;2023-06-22T12:43:52;36.70;72.50
15815;DHT22;8008;50.024;8.172;2023-06-22T12:46:22;37.10;73.40
15815;DHT22;8008;50.024;8.172;2023-06-22T12:48:50;37.40;71.90
15815;DHT22;8008;50.024;8.172;2023-06-22T12:51:21;37.80;72.20
15815;DHT22;8008;50.024;8.172;2023-06-22T12:53:49;37.30;71.10
15815;DHT22;8008;50.024;8.172;2023-06-22T12:56:17;36.50;70.00
15815;DHT22;8008;50.024;8.172;2023-06-22T12:58:45;36.20;71.20
15815;DHT22;8008;50.024;8.172;2023-06-22T13:01:13;36.60;71.40
15815;DHT22;8008;50.024;8.172;2023-06-22T13:03:42;36.60;71.10
15815;DHT22;8008;50.024;8.172;2023-06-22T13:06:11;36.50;71.40
15815;DHT22;8008;50.024;8.172;2023-06-22T13:08:39;36.50;71.70
15815;DHT22;8008;50.024;8.172;2023-06-22T13:11:10;36.50;69.40
15815;DHT22;8008;50.024;8.172;2023-06-22T13:13:38;36.70;68.90
15815;DHT22;8008;50.024;8.172;2023-06-22T13:16:07;36.60;68.00
15815;DHT22;8008;50.024;8.172;2023-06-22T13:18:35;36.50;70.90
15815;DHT22;8008;50.024;8.172;2023-06-22T13:21:05;36.80;72.20
15815;DHT22;8008;50.024;8.172;2023-06-22T13:23:33;37.30;70.40
15815;DHT22;8008;50.024;8.172;2023-06-22T13:26:02;37.90;69.60
15815;DHT22;8008;50.024;8.172;2023-06-22T13:28:29;38.20;68.00
15815;DHT22;8008;50.024;8.172;2023-06-22T13:30:58;37.70;68.30
15815;DHT22;8008;50.024;8.172;2023-06-22T13:33:26;37.30;68.50
15815;DHT22;8008;50.024;8.172;2023-06-22T13:35:53;36.80;68.80
15815;DHT22;8008;50.024;8.172;2023-06-22T13:38:23;36.20;69.30
15815;DHT22;8008;50.024;8.172;2023-06-22T13:40:51;35.80;70.20
15815;DHT22;8008;50.024;8.172;2023-06-22T13:43:19;35.50;71.20
15815;DHT22;8008;50.024;8.172;2023-06-22T13:45:47;35.50;70.80
15815;DHT22;8008;50.024;8.172;2023-06-22T13:48:14;35.30;71.20
15815;DHT22;8008;50.024;8.172;2023-06-22T13:50:43;35.00;71.70
15815;DHT22;8008;50.024;8.172;2023-06-22T13:53:11;35.20;72.60
15815;DHT22;8008;50.024;8.172;2023-06-22T13:55:40;36.10;71.70
15815;DHT22;8008;50.024;8.172;2023-06-22T13:58:08;36.30;70.60
15815;DHT22;8008;50.024;8.172;2023-06-22T14:00:37;36.20;68.30
15815;DHT22;8008;50.024;8.172;2023-06-22T14:03:05;35.50;66.20
15815;DHT22;8008;50.024;8.172;2023-06-22T14:05:33;34.90;67.70
15815;DHT22;8008;50.024;8.172;2023-06-22T14:08:01;34.70;66.60
15815;DHT22;8008;50.024;8.172;2023-06-22T14:10:37;34.40;66.20
15815;DHT22;8008;50.024;8.172;2023-06-22T14:13:07;34.00;66.50
15815;DHT22;8008;50.024;8.172;2023-06-22T14:15:35;33.90;67.50
15815;DHT22;8008;50.024;8.172;2023-06-22T14:18:03;33.80;68.10
15815;DHT22;8008;50.024;8.172;2023-06-22T14:20:31;33.70;68.10
15815;DHT22;8008;50.024;8.172;2023-06-22T14:22:59;33.50;67.90
15815;DHT22;8008;50.024;8.172;2023-06-22T14:25:27;33.20;68.40
15815;DHT22;8008;50.024;8.172;2023-06-22T14:27:55;33.00;69.40
15815;DHT22;8008;50.024;8.172;2023-06-22T14:30:24;32.80;69.50
15815;DHT22;8008;50.024;8.172;2023-06-22T14:32:53;32.60;70.40
15815;DHT22;8008;50.024;8.172;2023-06-22T14:35:21;32.60;70.80
15815;DHT22;8008;50.024;8.172;2023-06-22T14:37:50;32.50;71.70
15815;DHT22;8008;50.024;8.172;2023-06-22T14:40:18;32.50;71.30
15815;DHT22;8008;50.024;8.172;2023-06-22T14:42:49;32.40;71.80
15815;DHT22;8008;50.024;8.172;2023-06-22T14:45:17;32.40;71.90
15815;DHT22;8008;50.024;8.172;2023-06-22T14:47:46;32.20;72.50
15815;DHT22;8008;50.024;8.172;2023-06-22T14:50:14;32.10;72.80
15815;DHT22;8008;50.024;8.172;2023-06-22T14:52:43;32.00;73.40
15815;DHT22;8008;50.024;8.172;2023-06-22T14:55:11;32.00;70.70
15815;DHT22;8008;50.024;8.172;2023-06-22T14:57:39;32.00;69.80
15815;DHT22;8008;50.024;8.172;2023-06-22T15:00:07;32.00;69.90
15815;DHT22;8008;50.024;8.172;2023-06-22T15:02:36;32.00;69.10
15815;DHT22;8008;50.024;8.172;2023-06-22T15:05:06;31.90;66.80
15815;DHT22;8008;50.024;8.172;2023-06-22T15:07:34;31.90;67.00
15815;DHT22;8008;50.024;8.172;2023-06-22T15:10:02;31.90;67.30
15815;DHT22;8008;50.024;8.172;2023-06-22T15:12:30;31.90;67.10
15815;DHT22;8008;50.024;8.172;2023-06-22T15:14:57;31.90;66.80
15815;DHT22;8008;50.024;8.172;2023-06-22T15:17:26;31.90;67.30
15815;DHT22;8008;50.024;8.172;2023-06-22T15:19:57;32.00;68.00
15815;DHT22;8008;50.024;8.172;2023-06-22T15:22:27;32.00;67.40
15815;DHT22;8008;50.024;8.172;2023-06-22T15:24:55;32.00;67.20
15815;DHT22;8008;50.024;8.172;2023-06-22T15:27:25;32.10;66.70
15815;DHT22;8008;50.024;8.172;2023-06-22T15:29:53;32.00;66.40
15815;DHT22;8008;50.024;8.172;2023-06-22T15:32:20;32.00;66.70
15815;DHT22;8008;50.024;8.172;2023-06-22T15:34:48;31.90;67.50
15815;DHT22;8008;50.024;8.172;2023-06-22T15:37:20;31.80;67.60
15815;DHT22;8008;50.024;8.172;2023-06-22T15:39:49;31.60;68.10
15815;DHT22;8008;50.024;8.172;2023-06-22T15:42:17;31.50;68.70
15815;DHT22;8008;50.024;8.172;2023-06-22T15:44:45;29.50;99.90
15815;DHT22;8008;50.024;8.172;2023-06-22T15:47:13;24.20;99.90
15815;DHT22;8008;50.024;8.172;2023-06-22T15:49:41;22.10;99.90
15815;DHT22;8008;50.024;8.172;2023-06-22T15:52:09;21.80;99.90
15815;DHT22;8008;50.024;8.172;2023-06-22T15:54:37;21.80;99.90
15815;DHT22;8008;50.024;8.172;2023-06-22T15:57:06;22.10;99.90
15815;DHT22;8008;50.024;8.172;2023-06-22T15:59:34;22.40;99.90
15815;DHT22;8008;50.024;8.172;2023-06-22T16:02:02;22.80;99.90
15815;DHT22;8008;50.024;8.172;2023-06-22T16:04:30;23.10;99.90
15815;DHT22;8008;50.024;8.172;2023-06-22T16:06:58;23.10;99.90
15815;DHT22;8008;50.024;8.172;2023-06-22T16:09:26;22.60;99.90
15815;DHT22;8008;50.024;8.172;2023-06-22T16:11:55;22.70;99.90
15815;DHT22;8008;50.024;8.172;2023-06-22T16:14:25;22.80;99.90
15815;DHT22;8008;50.024;8.172;2023-06-22T16:16:53;22.90;99.90
15815;DHT22;8008;50.024;8.172;2023-06-22T16:19:21;22.60;99.90
15815;DHT22;8008;50.024;8.172;2023-06-22T16:21:49;22.40;99.90
15815;DHT22;8008;50.024;8.172;2023-06-22T16:24:17;22.70;99.90
15815;DHT22;8008;50.024;8.172;2023-06-22T16:26:44;22.80;99.90
15815;DHT22;8008;50.024;8.172;2023-06-22T16:29:14;22.80;99.90
15815;DHT22;8008;50.024;8.172;2023-06-22T16:31:43;22.70;99.90
15815;DHT22;8008;50.024;8.172;2023-06-22T16:34:11;22.80;99.90
15815;DHT22;8008;50.024;8.172;2023-06-22T16:36:39;23.10;99.90
15815;DHT22;8008;50.024;8.172;2023-06-22T16:39:07;23.40;99.90
15815;DHT22;8008;50.024;8.172;2023-06-22T16:41:35;23.80;99.90
15815;DHT22;8008;50.024;8.172;2023-06-22T16:44:03;24.10;99.90
15815;DHT22;8008;50.024;8.172;2023-06-22T16:46:33;24.10;99.90
15815;DHT22;8008;50.024;8.172;2023-06-22T16:49:03;24.10;99.90
15815;DHT22;8008;50.024;8.172;2023-06-22T16:51:30;24.30;99.90
15815;DHT22;8008;50.024;8.172;2023-06-22T16:53:59;24.50;99.90
15815;DHT22;8008;50.024;8.172;2023-06-22T16:56:27;24.30;99.90
15815;DHT22;8008;50.024;8.172;2023-06-22T16:58:57;24.30;99.90
15815;DHT22;8008;50.024;8.172;2023-06-22T17:01:34;24.00;99.90
15815;DHT22;8008;50.024;8.172;2023-06-22T17:04:07;24.20;99.90
15815;DHT22;8008;50.024;8.172;2023-06-22T17:06:36;24.40;99.90
15815;DHT22;8008;50.024;8.172;2023-06-22T17:09:05;24.60;99.90
15815;DHT22;8008;50.024;8.172;2023-06-22T17:11:33;24.70;99.90
15815;DHT22;8008;50.024;8.172;2023-06-22T17:14:01;24.90;99.90
15815;DHT22;8008;50.024;8.172;2023-06-22T17:16:31;25.00;99.90
15815;DHT22;8008;50.024;8.172;2023-06-22T17:19:00;25.10;99.90
15815;DHT22;8008;50.024;8.172;2023-06-22T17:21:33;24.90;99.90
15815;DHT22;8008;50.024;8.172;2023-06-22T17:24:01;25.00;99.90
15815;DHT22;8008;50.024;8.172;2023-06-22T17:26:30;25.50;99.90
15815;DHT22;8008;50.024;8.172;2023-06-22T17:29:00;25.00;99.90
15815;DHT22;8008;50.024;8.172;2023-06-22T17:31:36;25.10;99.90
15815;DHT22;8008;50.024;8.172;2023-06-22T17:34:07;25.30;99.90
15815;DHT22;8008;50.024;8.172;2023-06-22T17:36:44;25.70;99.90
15815;DHT22;8008;50.024;8.172;2023-06-22T17:39:14;25.30;99.90
15815;DHT22;8008;50.024;8.172;2023-06-22T17:41:43;25.30;99.90
15815;DHT22;8008;50.024;8.172;2023-06-22T17:44:13;25.20;99.90
15815;DHT22;8008;50.024;8.172;2023-06-22T17:46:45;24.90;99.90
15815;DHT22;8008;50.024;8.172;2023-06-22T17:49:13;24.70;99.90
15815;DHT22;8008;50.024;8.172;2023-06-22T17:51:43;24.50;99.90
15815;DHT22;8008;50.024;8.172;2023-06-22T17:54:11;24.60;99.90
15815;DHT22;8008;50.024;8.172;2023-06-22T17:56:39;24.40;99.90
15815;DHT22;8008;50.024;8.172;2023-06-22T17:59:07;24.50;99.90
15815;DHT22;8008;50.024;8.172;2023-06-22T18:01:36;24.60;99.90
15815;DHT22;8008;50.024;8.172;2023-06-22T18:04:06;24.40;99.90
15815;DHT22;8008;50.024;8.172;2023-06-22T18:06:36;24.50;99.90
15815;DHT22;8008;50.024;8.172;2023-06-22T18:09:11;24.30;99.90
15815;DHT22;8008;50.024;8.172;2023-06-22T18:11:43;24.20;99.90
15815;DHT22;8008;50.024;8.172;2023-06-22T18:14:14;24.20;99.90
15815;DHT22;8008;50.024;8.172;2023-06-22T18:16:44;24.30;99.90
15815;DHT22;8008;50.024;8.172;2023-06-22T18:19:13;24.20;99.90
15815;DHT22;8008;50.024;8.172;2023-06-22T18:21:44;24.10;99.90
15815;DHT22;8008;50.024;8.172;2023-06-22T18:24:15;24.00;99.90
15815;DHT22;8008;50.024;8.172;2023-06-22T18:26:43;24.10;99.90
15815;DHT22;8008;50.024;8.172;2023-06-22T18:29:12;24.00;99.90
15815;DHT22;8008;50.024;8.172;2023-06-22T18:31:40;24.00;99.90
15815;DHT22;8008;50.024;8.172;2023-06-22T18:34:10;24.00;99.90
15815;DHT22;8008;50.024;8.172;2023-06-22T18:36:41;24.10;99.90
15815;DHT22;8008;50.024;8.172;2023-06-22T18:39:10;24.00;99.90
15815;DHT22;8008;50.024;8.172;2023-06-22T18:41:42;24.00;99.90
15815;DHT22;8008;50.024;8.172;2023-06-22T18:44:19;23.90;99.90
15815;DHT22;8008;50.024;8.172;2023-06-22T18:46:50;23.80;99.90
15815;DHT22;8008;50.024;8.172;2023-06-22T18:49:22;23.70;99.90
15815;DHT22;8008;50.024;8.172;2023-06-22T18:51:55;23.70;99.90
15815;DHT22;8008;50.024;8.172;2023-06-22T18:54:29;23.40;99.90
15815;DHT22;8008;50.024;8.172;2023-06-22T18:56:58;23.30;99.90